createdAt,value
2019-02-04T00:01:59.595Z,-0.25
2019-02-04T00:04:45.172Z,-0.26
2019-02-04T00:07:30.608Z,-0.23
2019-02-04T00:10:15.955Z,-0.10
2019-02-04T00:13:01.303Z,-0.10
2019-02-04T00:15:46.764Z,-0.14
2019-02-04T00:18:34.604Z,-0.07
2019-02-04T00:21:20.193Z,-0.07
2019-02-04T00:24:05.970Z,-0.05
2019-02-04T00:26:52.012Z,0.03
2019-02-04T00:29:37.746Z,0.03
2019-02-04T00:32:23.091Z,-0.05
2019-02-04T00:35:08.691Z,-0.12
2019-02-04T00:37:54.545Z,-0.02
2019-02-04T00:40:40.478Z,-0.02
2019-02-04T00:43:26.028Z,-0.07
2019-02-04T00:46:11.449Z,-0.08
2019-02-04T00:48:56.845Z,-0.21
2019-02-04T00:51:42.909Z,-0.22
2019-02-04T00:54:28.241Z,-0.21
2019-02-04T00:57:14.212Z,-0.29
2019-02-04T00:59:59.577Z,-0.30
2019-02-04T01:02:45.009Z,-0.30
2019-02-04T01:05:30.480Z,-0.19
2019-02-04T01:08:16.401Z,-0.27
2019-02-04T01:11:01.936Z,-0.43
2019-02-04T01:13:47.770Z,-0.43
2019-02-04T01:16:33.127Z,-0.47
2019-02-04T01:19:18.723Z,-0.35
2019-02-04T01:22:04.879Z,-0.37
2019-02-04T01:24:50.236Z,-0.37
2019-02-04T01:27:35.547Z,-0.31
2019-02-04T01:30:21.233Z,-0.33
2019-02-04T01:33:06.954Z,-0.30
2019-02-04T01:35:52.277Z,-0.30
2019-02-04T01:38:37.758Z,-0.20
2019-02-04T01:41:23.158Z,-0.31
2019-02-04T01:44:08.637Z,-0.31
2019-02-04T01:46:54.189Z,-0.25
2019-02-04T01:49:39.461Z,-0.25
2019-02-04T01:52:24.866Z,-0.24
2019-02-04T01:55:10.940Z,-0.22
2019-02-04T01:57:56.709Z,-0.14
2019-02-04T02:00:42.124Z,-0.28
2019-02-04T02:03:27.765Z,-0.27
2019-02-04T02:06:13.624Z,-0.29
2019-02-04T02:08:59.694Z,-0.26
2019-02-04T02:11:45.070Z,-0.26
2019-02-04T02:14:30.552Z,-0.28
2019-02-04T02:17:26.035Z,-0.30
2019-02-04T02:20:05.282Z,-0.33
2019-02-04T02:22:51.097Z,-0.39
2019-02-04T02:25:36.459Z,-0.32
2019-02-04T02:28:22.390Z,-0.40
2019-02-04T02:31:07.774Z,-0.46
2019-02-04T02:33:53.106Z,-0.41
2019-02-04T02:36:38.689Z,-0.43
2019-02-04T02:39:24.017Z,-0.39
2019-02-04T02:42:09.970Z,-0.39
2019-02-04T02:44:56.322Z,-0.35
2019-02-04T02:47:41.762Z,-0.36
2019-02-04T02:50:27.299Z,-0.32
2019-02-04T02:53:12.635Z,-0.32
2019-02-04T02:55:58.565Z,-0.37
2019-02-04T02:58:43.946Z,-0.37
2019-02-04T03:01:29.294Z,-0.29
2019-02-04T03:04:14.711Z,-0.28
2019-02-04T03:06:59.986Z,-0.32
2019-02-04T03:09:45.574Z,-0.24
2019-02-04T03:12:30.925Z,-0.29
2019-02-04T03:15:16.228Z,-0.28
2019-02-04T03:18:01.529Z,-0.15
2019-02-04T03:20:46.856Z,-0.14
2019-02-04T03:23:32.266Z,-0.14
2019-02-04T03:26:18.174Z,-0.11
2019-02-04T03:29:03.558Z,-0.17
2019-02-04T03:31:48.916Z,-0.09
2019-02-04T03:34:34.238Z,-0.22
2019-02-04T03:37:19.830Z,-0.18
2019-02-04T03:40:05.678Z,-0.18
2019-02-04T03:42:51.574Z,-0.19
2019-02-04T03:45:37.677Z,-0.18
2019-02-04T03:48:23.554Z,-0.13
2019-02-04T03:51:08.918Z,-0.16
2019-02-04T03:53:54.391Z,-0.14
2019-02-04T03:56:39.667Z,-0.16
2019-02-04T03:59:25.148Z,-0.06
2019-02-04T04:02:10.635Z,-0.06
2019-02-04T04:04:56.031Z,0.00
2019-02-04T04:07:41.426Z,-0.06
2019-02-04T04:10:26.826Z,0.02
2019-02-04T04:13:12.130Z,-0.04
2019-02-04T04:15:58.089Z,-0.04
2019-02-04T04:18:43.462Z,0.02
2019-02-04T04:21:28.881Z,-0.01
2019-02-04T04:24:14.286Z,-0.05
2019-02-04T04:26:59.631Z,-0.05
2019-02-04T04:29:45.458Z,-0.12
2019-02-04T04:32:31.103Z,-0.10
2019-02-04T04:35:16.492Z,-0.14
2019-02-04T04:38:02.394Z,-0.07
2019-02-04T04:40:47.754Z,-0.08
2019-02-04T04:43:33.663Z,-0.11
2019-02-04T04:46:19.259Z,-0.11
2019-02-04T04:49:04.707Z,-0.08
2019-02-04T04:51:50.139Z,-0.06
2019-02-04T04:54:35.551Z,-0.04
2019-02-04T04:57:20.798Z,0.05
2019-02-04T05:00:08.531Z,0.05
2019-02-04T05:02:54.131Z,-0.01
2019-02-04T05:05:39.874Z,0.09
2019-02-04T05:08:25.857Z,0.09
2019-02-04T05:11:11.267Z,0.10
2019-02-04T05:13:56.750Z,0.10
2019-02-04T05:16:42.585Z,0.20
2019-02-04T05:19:27.936Z,0.14
2019-02-04T05:22:13.475Z,0.14
2019-02-04T05:25:00.209Z,0.11
2019-02-04T05:27:45.693Z,0.27
2019-02-04T05:30:31.063Z,0.30
2019-02-04T05:33:16.529Z,0.30
2019-02-04T05:36:01.885Z,0.30
2019-02-04T05:38:47.455Z,0.30
2019-02-04T05:41:33.377Z,0.32
2019-02-04T05:44:18.758Z,0.33
2019-02-04T05:47:05.329Z,0.29
2019-02-04T05:49:50.729Z,0.29
2019-02-04T05:52:36.041Z,0.25
2019-02-04T05:55:21.883Z,0.25
2019-02-04T05:58:07.153Z,0.24
2019-02-04T06:00:52.614Z,0.24
2019-02-04T06:03:38.362Z,0.41
2019-02-04T06:06:23.673Z,0.40
2019-02-04T06:09:09.025Z,0.34
2019-02-04T06:11:54.816Z,0.33
2019-02-04T06:14:40.151Z,0.33
2019-02-04T06:17:26.055Z,0.31
2019-02-04T06:20:13.937Z,0.47
2019-02-04T06:22:59.447Z,0.46
2019-02-04T06:25:44.780Z,0.46
2019-02-04T06:28:30.203Z,0.30
2019-02-04T06:31:16.192Z,0.38
2019-02-04T06:34:01.584Z,0.38
2019-02-04T06:36:47.021Z,0.34
2019-02-04T06:39:32.376Z,0.34
2019-02-04T06:42:17.716Z,0.39
2019-02-04T06:45:05.436Z,0.31
2019-02-04T06:47:51.947Z,0.31
2019-02-04T06:50:37.932Z,0.25
2019-02-04T06:53:23.495Z,0.14
2019-02-04T06:56:08.904Z,0.26
2019-02-04T06:58:54.296Z,0.26
2019-02-04T07:01:39.656Z,0.08
2019-02-04T07:04:26.676Z,0.08
2019-02-04T07:07:15.082Z,0.18
2019-02-04T07:10:00.334Z,0.18
2019-02-04T07:12:45.748Z,0.18
2019-02-04T07:15:31.124Z,0.18
2019-02-04T07:18:17.029Z,0.22
2019-02-04T07:21:02.369Z,0.22
2019-02-04T07:23:47.809Z,0.26
2019-02-04T07:26:33.130Z,0.40
2019-02-04T07:29:18.500Z,0.40
2019-02-04T07:32:04.275Z,0.47
2019-02-04T07:34:49.760Z,0.57
2019-02-04T07:37:35.045Z,0.58
2019-02-04T07:40:22.824Z,0.58
2019-02-04T07:43:08.556Z,0.68
2019-02-04T07:45:53.944Z,0.72
2019-02-04T07:48:40.317Z,0.82
2019-02-04T07:51:25.960Z,0.79
2019-02-04T07:54:11.737Z,0.86
2019-02-04T07:56:57.270Z,1.00
2019-02-04T07:59:42.663Z,1.16
2019-02-04T08:02:28.160Z,1.15
2019-02-04T08:05:13.973Z,1.28
2019-02-04T08:07:59.384Z,1.27
2019-02-04T08:10:44.828Z,1.32
2019-02-04T08:13:30.240Z,1.35
2019-02-04T08:16:15.784Z,1.41
2019-02-04T08:19:01.767Z,1.57
2019-02-04T08:21:47.105Z,1.66
2019-02-04T08:24:32.795Z,1.81
2019-02-04T08:27:18.405Z,1.83
2019-02-04T08:30:07.220Z,2.22
2019-02-04T08:32:52.927Z,2.22
2019-02-04T08:35:39.757Z,2.30
2019-02-04T08:38:25.357Z,2.63
2019-02-04T08:41:10.827Z,2.34
2019-02-04T08:43:56.225Z,2.47
2019-02-04T08:46:42.212Z,2.35
2019-02-04T08:49:27.827Z,2.52
2019-02-04T08:52:13.154Z,2.52
2019-02-04T08:54:58.477Z,2.21
2019-02-04T08:57:44.458Z,2.63
2019-02-04T09:00:30.613Z,2.56
2019-02-04T09:03:16.003Z,2.57
2019-02-04T09:06:01.363Z,2.35
2019-02-04T09:08:46.725Z,2.48
2019-02-04T09:11:32.048Z,2.65
2019-02-04T09:14:17.955Z,2.40
2019-02-04T09:17:03.296Z,2.42
2019-02-04T09:19:48.727Z,2.46
2019-02-04T09:22:34.030Z,2.57
2019-02-04T09:25:19.858Z,2.72
2019-02-04T09:28:06.005Z,2.81
2019-02-04T09:30:51.420Z,2.90
2019-02-04T09:33:36.850Z,2.97
2019-02-04T09:36:22.198Z,2.78
2019-02-04T09:39:09.205Z,2.93
2019-02-04T09:41:55.298Z,2.95
2019-02-04T09:44:40.547Z,2.91
2019-02-04T09:47:25.964Z,3.08
2019-02-04T09:50:21.437Z,3.12
2019-02-04T09:53:02.021Z,3.49
2019-02-04T09:55:47.356Z,3.29
2019-02-04T09:58:32.898Z,3.36
2019-02-04T10:01:18.233Z,3.47
2019-02-04T10:04:04.188Z,3.61
2019-02-04T10:06:49.692Z,3.49
2019-02-04T10:09:35.643Z,3.49
2019-02-04T10:12:21.669Z,3.27
2019-02-04T10:15:11.173Z,3.54
2019-02-04T10:17:56.544Z,3.54
2019-02-04T10:20:42.015Z,3.73
2019-02-04T10:23:27.796Z,3.58
2019-02-04T10:26:13.230Z,3.74
2019-02-04T10:28:59.043Z,3.69
2019-02-04T10:31:44.601Z,3.59
2019-02-04T10:34:30.264Z,3.68
2019-02-04T10:37:15.748Z,3.54
2019-02-04T10:40:01.082Z,3.51
2019-02-04T10:42:46.723Z,3.57
2019-02-04T10:45:32.338Z,3.75
2019-02-04T10:48:17.902Z,3.61
2019-02-04T10:51:03.904Z,3.64
2019-02-04T10:53:49.838Z,3.63
2019-02-04T10:56:35.569Z,3.57
2019-02-04T10:59:21.250Z,3.67
2019-02-04T11:02:06.988Z,3.71
2019-02-04T11:04:52.261Z,3.99
2019-02-04T11:07:37.585Z,3.88
2019-02-04T11:10:30.598Z,3.98
2019-02-04T11:13:17.957Z,3.79
2019-02-04T11:16:03.828Z,3.90
2019-02-04T11:18:49.444Z,3.77
2019-02-04T11:21:34.773Z,3.74
2019-02-04T11:24:20.095Z,3.95
2019-02-04T11:27:05.740Z,3.87
2019-02-04T11:29:51.328Z,3.96
2019-02-04T11:32:36.767Z,4.04
2019-02-04T11:35:22.146Z,3.99
2019-02-04T11:38:07.637Z,4.36
2019-02-04T11:40:59.056Z,4.26
2019-02-04T11:43:51.998Z,4.57
2019-02-04T11:46:38.125Z,4.66
2019-02-04T11:49:23.890Z,4.62
2019-02-04T11:52:09.746Z,4.28
2019-02-04T11:54:55.393Z,4.64
2019-02-04T11:57:40.760Z,4.65
2019-02-04T12:07:01.044Z,4.40
2019-02-04T12:09:46.418Z,4.44
2019-02-04T12:12:31.764Z,4.57
2019-02-04T12:15:18.553Z,4.43
2019-02-04T12:18:04.401Z,4.45
2019-02-04T12:20:50.044Z,4.59
2019-02-04T12:23:35.956Z,4.61
2019-02-04T12:26:21.808Z,4.81
2019-02-04T12:29:07.300Z,4.89
2019-02-04T12:31:52.603Z,4.68
2019-02-04T12:34:38.020Z,4.75
2019-02-04T12:37:24.081Z,4.88
2019-02-04T12:40:10.187Z,4.64
2019-02-04T12:42:55.638Z,4.80
2019-02-04T12:45:41.830Z,4.75
2019-02-04T12:48:27.149Z,4.79
2019-02-04T12:51:13.104Z,4.88
2019-02-04T12:53:58.540Z,4.72
2019-02-04T12:56:43.936Z,4.89
2019-02-04T12:59:29.291Z,4.80
2019-02-04T13:02:14.676Z,4.79
2019-02-04T13:05:00.206Z,4.98
2019-02-04T13:07:45.494Z,5.10
2019-02-04T13:10:31.134Z,5.13
2019-02-04T13:13:19.573Z,5.08
2019-02-04T13:16:05.281Z,5.24
2019-02-04T13:18:50.600Z,5.58
2019-02-04T13:21:45.057Z,5.05
2019-02-04T13:24:23.984Z,5.15
2019-02-04T13:27:09.468Z,4.97
2019-02-04T13:29:54.888Z,4.97
2019-02-04T13:32:40.152Z,4.70
2019-02-04T13:35:25.724Z,4.77
2019-02-04T13:38:11.761Z,4.68
2019-02-04T13:41:07.499Z,4.62
2019-02-04T13:43:45.131Z,4.61
2019-02-04T13:46:30.624Z,4.79
2019-02-04T13:49:16.088Z,4.64
2019-02-04T13:52:01.468Z,4.64
2019-02-04T13:54:46.971Z,4.63
2019-02-04T13:57:32.259Z,4.55
2019-02-04T14:00:17.987Z,4.49
2019-02-04T14:03:04.142Z,4.52
2019-02-04T14:05:52.127Z,4.52
2019-02-04T14:08:40.697Z,4.43
2019-02-04T14:11:26.734Z,4.48
2019-02-04T14:14:12.182Z,4.48
2019-02-04T14:16:57.468Z,4.55
2019-02-04T14:19:42.930Z,4.53
2019-02-04T14:22:28.208Z,4.42
2019-02-04T14:25:17.238Z,4.45
2019-02-04T14:28:03.630Z,4.39
2019-02-04T14:30:50.378Z,4.44
2019-02-04T14:33:35.793Z,4.40
2019-02-04T14:36:21.167Z,4.35
2019-02-04T14:39:11.323Z,4.39
2019-02-04T14:41:56.957Z,4.35
2019-02-04T14:45:39.519Z,4.34
2019-02-04T14:48:59.934Z,4.37
2019-02-04T14:51:57.566Z,4.30
2019-02-04T14:55:35.114Z,4.31
2019-02-04T14:58:35.270Z,4.20
2019-02-04T15:02:04.329Z,4.21
2019-02-04T15:05:23.243Z,4.25
2019-02-04T15:08:34.297Z,4.17
2019-02-04T15:11:41.556Z,4.10
2019-02-04T15:15:04.303Z,4.10
2019-02-04T15:18:41.619Z,4.10
2019-02-04T15:22:10.291Z,4.03
2019-02-04T15:25:17.431Z,4.06
2019-02-04T15:28:34.972Z,4.01
2019-02-04T15:31:53.359Z,4.05
2019-02-04T15:35:04.819Z,3.96
2019-02-04T15:38:22.697Z,3.90
2019-02-04T15:41:46.458Z,3.87
2019-02-04T15:45:07.004Z,3.87
2019-02-04T15:48:04.363Z,3.85
2019-02-04T15:51:15.620Z,3.85
2019-02-04T15:54:04.570Z,3.77
2019-02-04T15:56:51.686Z,3.75
2019-02-04T15:59:37.284Z,3.83
2019-02-04T16:02:22.862Z,3.80
2019-02-04T16:05:09.028Z,3.69
2019-02-04T16:07:55.114Z,3.75
2019-02-04T16:10:40.596Z,3.74
2019-02-04T16:13:25.799Z,3.71
2019-02-04T16:19:18.703Z,3.62
2019-02-04T16:22:04.995Z,3.59
2019-02-04T16:24:53.405Z,3.65
2019-02-04T16:27:39.742Z,3.60
2019-02-04T16:30:25.588Z,3.59
2019-02-04T16:33:11.935Z,3.60
2019-02-04T16:35:58.140Z,3.64
2019-02-04T16:38:50.512Z,3.64
2019-02-04T16:41:36.533Z,3.63
2019-02-04T16:44:22.556Z,3.59
2019-02-04T16:47:08.938Z,3.57
2019-02-04T16:49:57.206Z,3.62
2019-02-04T16:52:48.103Z,3.56
2019-02-04T16:55:37.385Z,3.55
2019-02-04T16:58:23.299Z,3.64
2019-02-04T17:01:09.247Z,3.65
2019-02-04T17:03:55.480Z,3.65
2019-02-04T17:06:41.647Z,3.66
2019-02-04T17:09:34.035Z,3.58
2019-02-04T17:12:20.745Z,3.59
2019-02-04T17:15:07.007Z,3.62
2019-02-04T17:17:55.620Z,3.63
2019-02-04T17:20:44.858Z,3.67
2019-02-04T17:23:30.660Z,3.63
2019-02-04T17:26:16.777Z,3.64
2019-02-04T17:29:03.605Z,3.65
2019-02-04T17:31:52.709Z,3.65
2019-02-04T17:34:39.023Z,3.55
2019-02-04T17:37:25.516Z,3.67
2019-02-04T17:40:16.232Z,3.64
2019-02-04T17:43:04.101Z,3.60
2019-02-04T17:46:01.063Z,3.62
2019-02-04T17:48:51.685Z,3.57
2019-02-04T17:51:37.868Z,3.57
2019-02-04T17:54:23.705Z,3.51
2019-02-04T17:57:09.862Z,3.54
2019-02-04T17:59:56.109Z,3.61
2019-02-04T18:02:44.423Z,3.60
2019-02-04T18:05:30.616Z,3.59
2019-02-04T18:08:19.401Z,3.61
2019-02-04T18:11:05.493Z,3.59
2019-02-04T18:13:51.863Z,3.58
2019-02-04T18:16:39.952Z,3.62
2019-02-04T18:19:26.770Z,3.58
2019-02-04T18:22:14.505Z,3.54
2019-02-04T18:25:00.469Z,3.53
2019-02-04T18:27:46.558Z,3.62
2019-02-04T18:30:32.953Z,3.56
2019-02-04T18:33:19.500Z,3.54
2019-02-04T18:36:05.734Z,3.56
2019-02-04T18:38:52.170Z,3.57
2019-02-04T18:41:38.361Z,3.54
2019-02-04T18:44:24.523Z,3.50
2019-02-04T18:47:11.264Z,3.53
2019-02-04T18:49:57.413Z,3.54
2019-02-04T18:52:43.874Z,3.58
2019-02-04T18:55:31.709Z,3.56
2019-02-04T18:58:17.580Z,3.54
2019-02-04T19:01:04.049Z,3.55
2019-02-04T19:03:52.309Z,3.58
2019-02-04T19:06:47.816Z,3.56
2019-02-04T19:09:32.251Z,3.59
2019-02-04T19:12:20.652Z,3.63
2019-02-04T19:15:11.616Z,3.63
2019-02-04T19:18:01.871Z,3.59
2019-02-04T19:20:55.557Z,3.64
2019-02-04T19:23:49.816Z,3.60
2019-02-04T19:26:36.651Z,3.58
2019-02-04T19:29:22.999Z,3.64
2019-02-04T19:32:09.384Z,3.63
2019-02-04T19:34:55.580Z,3.59
2019-02-04T19:37:41.867Z,3.65
2019-02-04T19:40:28.787Z,3.64
2019-02-04T19:43:14.608Z,3.69
2019-02-04T19:46:01.252Z,3.68
2019-02-04T19:48:47.367Z,3.69
2019-02-04T19:51:35.849Z,3.66
2019-02-04T19:54:24.686Z,3.65
2019-02-04T19:57:11.322Z,3.62
2019-02-04T19:59:57.489Z,3.69
2019-02-04T20:02:43.898Z,3.60
2019-02-04T20:05:30.622Z,3.59
2019-02-04T20:08:16.934Z,3.61
2019-02-04T20:11:04.755Z,3.58
2019-02-04T20:13:53.848Z,3.58
2019-02-04T20:16:40.484Z,3.57
2019-02-04T20:19:26.564Z,3.56
2019-02-04T20:22:12.539Z,3.59
2019-02-04T20:25:01.148Z,3.58
2019-02-04T20:27:47.553Z,3.53
2019-02-04T20:30:45.892Z,3.54
2019-02-04T20:33:29.427Z,3.57
2019-02-04T20:36:15.400Z,3.56
2019-02-04T20:39:04.191Z,3.52
2019-02-04T20:41:50.631Z,3.54
2019-02-04T20:44:38.284Z,3.57
2019-02-04T20:47:26.073Z,3.56
2019-02-04T20:50:23.972Z,3.60
2019-02-04T20:53:12.551Z,3.54
2019-02-04T20:55:59.164Z,3.53
2019-02-04T20:58:45.294Z,3.54
2019-02-04T21:01:31.303Z,3.54
2019-02-04T21:04:17.429Z,3.52
2019-02-04T21:07:03.675Z,3.56
2019-02-04T21:09:51.742Z,3.53
2019-02-04T21:12:37.933Z,3.48
2019-02-04T21:15:24.643Z,3.55
2019-02-04T21:18:10.928Z,3.58
2019-02-04T21:20:57.431Z,3.51
2019-02-04T21:23:43.282Z,3.53
2019-02-04T21:26:31.818Z,3.52
2019-02-04T21:29:19.300Z,3.57
2019-02-04T21:32:05.513Z,3.54
2019-02-04T21:34:51.659Z,3.57
2019-02-04T21:37:37.626Z,3.51
2019-02-04T21:40:23.614Z,3.54
2019-02-04T21:43:11.925Z,3.54
2019-02-04T21:45:58.167Z,3.49
2019-02-04T21:48:44.170Z,3.55
2019-02-04T21:51:30.403Z,3.57
2019-02-04T21:54:19.094Z,3.59
2019-02-04T21:57:08.091Z,3.54
2019-02-04T21:59:54.007Z,3.59
2019-02-04T22:02:39.913Z,3.62
2019-02-04T22:05:27.355Z,3.59
2019-02-04T22:08:13.302Z,3.57
2019-02-04T22:11:07.036Z,3.69
2019-02-04T22:13:53.379Z,3.62
2019-02-04T22:16:42.338Z,3.65
2019-02-04T22:19:28.482Z,3.64
2019-02-04T22:22:15.022Z,3.55
2019-02-04T22:25:00.907Z,3.60
2019-02-04T22:27:47.973Z,3.65
2019-02-04T22:30:34.382Z,3.63
2019-02-04T22:33:20.482Z,3.69
2019-02-04T22:36:07.214Z,3.60
2019-02-04T22:41:55.654Z,3.53
2019-02-04T22:44:43.057Z,3.59
2019-02-04T22:47:29.722Z,3.60
2019-02-04T22:50:18.278Z,3.62
2019-02-04T22:56:08.037Z,3.63
2019-02-04T23:01:53.720Z,3.62
2019-02-04T23:04:42.038Z,3.63
2019-02-04T23:07:30.343Z,3.62
2019-02-04T23:10:16.318Z,3.65
2019-02-04T23:13:04.694Z,3.66
2019-02-04T23:15:50.682Z,3.62
2019-02-04T23:18:36.589Z,3.60
2019-02-04T23:21:22.837Z,3.63
2019-02-04T23:24:09.364Z,3.60
2019-02-04T23:26:55.237Z,3.62
2019-02-04T23:29:41.468Z,3.60
2019-02-04T23:32:27.286Z,3.57
2019-02-04T23:35:13.431Z,3.57
2019-02-04T23:37:59.936Z,3.57
2019-02-04T23:40:46.252Z,3.56
2019-02-04T23:43:33.750Z,3.56
2019-02-04T23:46:21.123Z,3.55
2019-02-04T23:49:07.069Z,3.54
2019-02-04T23:51:52.990Z,3.54
2019-02-04T23:54:38.992Z,3.47
2019-02-04T23:57:25.494Z,3.46
